Rockport, Washington
Current Conditions -  °F | °C
As of 10:15 PM on Tuesday 21 Oct 2014 (Local Time) from KAWO Reporting Station
Overcast Overcast  
Wind Chill: 57°   Ceiling: 7000
Heat Index: 57°   Visibility: 10mi
Dew Point: 46°   Wind: 9mph
Humidity: 67%   Direction: 150°SSE
Pressure: 29.78"   Gusts: NA
Location:  48.49°N, 121.6°W
Report Text: KAWO 220515Z AUTO 15008KT 10SM SCT050 OVC070 14/08 A2978 RMK AO1
Loading
Personal Weather Stations






























Interactive Weather Map
Tropical Storm Tracking
New forecast layout! Learn more

10-Day Weather Forecast

Advertisements
Track Severe Weather on mobile